Time;durP1;ratioP1;P1;durP2;ratioP2;P2;SDS_P1;SDS_P2;PMS_P1;PMS_P2;Temp;Humidity;BMP_temperature;BMP_pressure;BME280_temperature;BME280_humidity;BME280_pressure;Samples;Min_cycle;Max_cycle;Signal;HPM_P1;HPM_P2
2021/05/04 00:01:36;;;;;;;5.22;3.17;;;10.40;99.90;;;;;;12234270;28;20135;-79
2021/05/04 00:07:37;;;;;;;5.50;3.22;;;10.40;99.90;;;;;;12252930;28;20145;-79
2021/05/04 00:13:39;;;;;;;8.18;3.33;;;10.40;99.90;;;;;;12258984;28;20458;-79
2021/05/04 00:19:40;;;;;;;4.57;3.10;;;10.50;99.90;;;;;;12242185;28;20223;-79
2021/05/04 00:25:41;;;;;;;7.32;3.10;;;10.50;99.90;;;;;;12202173;28;20125;-79
2021/05/04 00:31:42;;;;;;;4.63;3.08;;;10.60;99.90;;;;;;12207775;28;20052;-79
2021/05/04 00:37:44;;;;;;;4.65;2.88;;;10.50;99.90;;;;;;12209858;28;20059;-79
2021/05/04 00:43:45;;;;;;;5.68;3.30;;;10.40;99.90;;;;;;12223789;28;20048;-79
2021/05/04 00:49:47;;;;;;;5.50;3.03;;;10.50;99.90;;;;;;12217135;28;20171;-80
2021/05/04 00:55:49;;;;;;;4.15;2.60;;;10.60;99.90;;;;;;12217117;28;20775;-79
2021/05/04 01:01:52;;;;;;;5.82;2.45;;;10.60;99.90;;;;;;12215434;28;20570;-79
2021/05/04 01:07:54;;;;;;;6.00;2.97;;;10.60;99.90;;;;;;12239200;28;20067;-80
2021/05/04 01:13:56;;;;;;;5.70;2.65;;;10.70;99.90;;;;;;12216664;28;20064;-78
2021/05/04 01:19:58;;;;;;;6.93;2.92;;;10.60;99.90;;;;;;12206733;28;20076;-79
2021/05/04 01:25:59;;;;;;;4.57;2.78;;;10.60;99.90;;;;;;12195968;28;20048;-78
2021/05/04 01:32:00;;;;;;;5.55;2.70;;;10.70;99.90;;;;;;12193045;28;20094;-79
2021/05/04 01:38:02;;;;;;;4.60;2.60;;;10.70;99.90;;;;;;12145066;28;20053;-79
2021/05/04 01:44:05;;;;;;;3.80;2.50;;;10.70;99.90;;;;;;12148385;28;20589;-79
2021/05/04 01:50:08;;;;;;;3.75;2.42;;;10.70;99.90;;;;;;12153955;29;20048;-80
2021/05/04 01:56:09;;;;;;;5.18;2.38;;;10.70;99.90;;;;;;12202218;28;20131;-79
2021/05/04 02:02:10;;;;;;;6.72;3.28;;;10.70;99.90;;;;;;12205606;28;20067;-79
2021/05/04 02:08:12;;;;;;;5.55;2.53;;;10.70;99.90;;;;;;12205360;28;20114;-80
2021/05/04 02:14:13;;;;;;;5.97;2.33;;;10.70;99.90;;;;;;12190259;28;20441;-79
2021/05/04 02:20:14;;;;;;;5.13;2.42;;;10.70;99.90;;;;;;12186535;28;20136;-80
2021/05/04 02:26:17;;;;;;;4.10;2.28;;;10.70;99.90;;;;;;12226586;28;20048;-80
2021/05/04 02:32:18;;;;;;;4.25;2.40;;;10.70;99.90;;;;;;12219159;28;20382;-80
2021/05/04 02:38:20;;;;;;;4.78;2.40;;;10.80;99.90;;;;;;12217713;28;20044;-80
2021/05/04 02:44:21;;;;;;;4.38;2.53;;;10.80;99.90;;;;;;12224486;28;20540;-80
2021/05/04 02:50:23;;;;;;;6.25;2.20;;;10.80;99.90;;;;;;12223684;28;20091;-80
2021/05/04 02:56:25;;;;;;;4.75;2.75;;;10.90;99.90;;;;;;12168407;28;20063;-80
2021/05/04 03:02:27;;;;;;;5.78;2.20;;;10.80;99.90;;;;;;12174257;28;20147;-80
2021/05/04 03:08:28;;;;;;;3.90;2.58;;;10.80;99.90;;;;;;12160821;28;20048;-80
2021/05/04 03:14:30;;;;;;;4.38;1.85;;;10.70;99.90;;;;;;12173981;28;20556;-79
2021/05/04 03:20:31;;;;;;;7.10;1.70;;;10.90;99.90;;;;;;12169691;28;20044;-79
2021/05/04 03:26:35;;;;;;;3.65;1.90;;;10.80;99.90;;;;;;12208804;28;20058;-78
2021/05/04 03:32:40;;;;;;;5.05;1.38;;;10.70;99.90;;;;;;12214604;28;20063;-78
2021/05/04 03:38:42;;;;;;;5.28;1.77;;;10.70;99.90;;;;;;12210978;28;20056;-78
2021/05/04 03:44:43;;;;;;;9.63;1.90;;;10.80;99.90;;;;;;12220962;28;20659;-78
2021/05/04 03:50:45;;;;;;;4.35;1.50;;;10.70;99.90;;;;;;12212088;28;20496;-79
2021/05/04 03:56:46;;;;;;;3.58;1.40;;;10.80;99.90;;;;;;12207384;28;20159;-78
2021/05/04 04:02:48;;;;;;;6.50;1.80;;;10.60;99.90;;;;;;12215853;28;20071;-78
2021/05/04 04:08:50;;;;;;;4.63;2.22;;;10.30;99.90;;;;;;12213366;28;20174;-79
2021/05/04 04:14:53;;;;;;;8.52;2.10;;;9.70;99.90;;;;;;12202179;28;20151;-79
2021/05/04 04:20:54;;;;;;;4.90;2.10;;;9.40;99.90;;;;;;12207202;28;20059;-79
2021/05/04 04:26:58;;;;;;;4.00;1.98;;;9.20;99.90;;;;;;12206247;28;20146;-79
2021/05/04 04:32:59;;;;;;;3.22;1.88;;;9.00;99.90;;;;;;12215109;28;20120;-80
2021/05/04 04:39:01;;;;;;;5.57;2.30;;;8.70;99.90;;;;;;12215170;28;20059;-79
2021/05/04 04:45:08;;;;;;;5.72;2.35;;;8.40;99.90;;;;;;12207003;28;20048;-80
2021/05/04 04:51:13;;;;;;;4.53;2.40;;;8.10;99.90;;;;;;12209048;28;20433;-80
2021/05/04 04:57:20;;;;;;;3.87;2.80;;;7.80;99.90;;;;;;12209083;28;20163;-79
2021/05/04 05:03:24;;;;;;;4.53;2.88;;;7.80;99.90;;;;;;12211982;28;20093;-79
2021/05/04 05:09:25;;;;;;;5.53;3.07;;;7.70;99.90;;;;;;12213820;28;20059;-80
2021/05/04 05:15:27;;;;;;;4.88;3.45;;;7.60;99.90;;;;;;12210048;28;20133;-80
2021/05/04 05:21:30;;;;;;;4.30;3.00;;;7.60;99.90;;;;;;12214530;28;20052;-80
2021/05/04 05:27:33;;;;;;;5.70;2.97;;;7.60;99.90;;;;;;12210279;28;20186;-79
2021/05/04 05:33:34;;;;;;;5.60;3.13;;;7.60;99.90;;;;;;12215043;28;20093;-79
2021/05/04 05:39:41;;;;;;;3.15;2.22;;;7.70;99.90;;;;;;12217533;28;20502;-79
2021/05/04 05:45:43;;;;;;;4.22;2.42;;;7.80;99.90;;;;;;12219697;28;20059;-79
2021/05/04 05:51:44;;;;;;;4.20;2.30;;;7.80;99.90;;;;;;12214062;28;20056;-80
2021/05/04 05:57:45;;;;;;;4.13;2.70;;;7.90;99.90;;;;;;12218500;28;20049;-80
2021/05/04 06:03:46;;;;;;;4.82;2.20;;;8.10;99.90;;;;;;12213600;28;20048;-80
2021/05/04 06:09:48;;;;;;;2.80;1.88;;;8.20;99.90;;;;;;12211046;28;20139;-80
2021/05/04 06:15:49;;;;;;;3.38;1.60;;;8.20;99.90;;;;;;12228600;28;20182;-79
2021/05/04 06:21:50;;;;;;;4.22;1.88;;;8.20;99.90;;;;;;12217483;28;20055;-78
2021/05/04 06:27:53;;;;;;;5.32;1.90;;;8.20;99.90;;;;;;12212145;28;20118;-79
2021/05/04 06:33:55;;;;;;;6.20;1.80;;;8.20;99.90;;;;;;12212756;28;20071;-79
2021/05/04 06:39:56;;;;;;;3.33;1.80;;;8.10;99.90;;;;;;12223115;28;20149;-80
2021/05/04 06:45:59;;;;;;;2.83;1.60;;;8.20;99.90;;;;;;12209088;28;20048;-80
2021/05/04 06:52:01;;;;;;;4.65;1.70;;;8.40;99.90;;;;;;12212879;28;20566;-78
2021/05/04 06:58:03;;;;;;;3.00;1.58;;;8.40;99.90;;;;;;12218514;28;20076;-80
2021/05/04 07:04:06;;;;;;;2.60;1.52;;;8.50;99.90;;;;;;12212401;28;20067;-80
2021/05/04 07:10:08;;;;;;;3.30;1.52;;;8.60;99.90;;;;;;12294001;28;20059;-79
2021/05/04 07:16:09;;;;;;;4.20;1.60;;;8.60;99.90;;;;;;12217101;28;20055;-79
2021/05/04 07:22:11;;;;;;;2.58;1.48;;;8.80;99.90;;;;;;12213990;28;20127;-79
2021/05/04 07:28:13;;;;;;;2.50;1.15;;;8.90;99.90;;;;;;12215689;28;20094;-79
2021/05/04 07:34:14;;;;;;;2.17;1.40;;;8.90;99.90;;;;;;12209782;28;20197;-79
2021/05/04 07:40:16;;;;;;;4.75;1.70;;;8.80;99.90;;;;;;12204952;28;20044;-79
2021/05/04 07:46:17;;;;;;;3.35;1.60;;;8.60;99.90;;;;;;12202647;28;20079;-80
2021/05/04 07:52:18;;;;;;;3.60;1.20;;;8.70;99.90;;;;;;12205161;28;20077;-80
2021/05/04 07:58:20;;;;;;;2.30;1.05;;;9.00;99.90;;;;;;12204909;28;20052;-79
2021/05/04 08:04:21;;;;;;;3.22;1.30;;;9.20;99.90;;;;;;12210789;28;20059;-79
2021/05/04 08:10:22;;;;;;;6.80;1.30;;;9.30;99.90;;;;;;12213076;28;20076;-80
2021/05/04 08:16:24;;;;;;;3.55;1.40;;;9.40;99.90;;;;;;12206708;28;20097;-79
2021/05/04 08:22:26;;;;;;;1.80;1.17;;;9.50;99.90;;;;;;12227882;28;20117;-81
2021/05/04 08:28:27;;;;;;;2.58;1.20;;;9.70;99.90;;;;;;12296843;28;20130;-80
2021/05/04 08:34:32;;;;;;;10.23;1.45;;;10.00;99.90;;;;;;12210631;28;20126;-80
2021/05/04 08:40:34;;;;;;;4.25;1.00;;;10.00;99.90;;;;;;12213176;28;20052;-81
2021/05/04 08:46:39;;;;;;;4.05;1.10;;;10.10;99.90;;;;;;12218945;28;20052;-81
2021/05/04 08:52:41;;;;;;;1.45;0.98;;;10.10;99.90;;;;;;12221880;28;20071;-80
2021/05/04 08:58:43;;;;;;;3.63;1.13;;;9.90;99.90;;;;;;12208509;28;20103;-82
2021/05/04 09:04:54;;;;;;;;;;;9.90;99.90;;;;;;12216315;28;20056;-80
2021/05/04 09:10:57;;;;;;;2.60;1.10;;;9.90;99.90;;;;;;12239347;28;20065;-80
2021/05/04 09:23:08;;;;;;;3.65;0.95;;;9.90;99.90;;;;;;12220235;28;20048;-80
2021/05/04 09:29:10;;;;;;;2.28;0.98;;;10.00;99.90;;;;;;12229473;28;20440;-81
2021/05/04 09:35:12;;;;;;;2.60;0.80;;;10.00;99.90;;;;;;12223204;28;20816;-80
2021/05/04 09:41:30;;;;;;;3.22;1.50;;;10.10;99.90;;;;;;12232858;28;20135;-82
2021/05/04 09:47:32;;;;;;;2.97;0.85;;;10.00;99.90;;;;;;12221994;28;20051;-80
2021/05/04 09:59:48;;;;;;;3.13;1.00;;;10.00;99.90;;;;;;12226777;28;20099;-81
2021/05/04 10:05:51;;;;;;;1.67;1.17;;;10.10;99.90;;;;;;12226515;28;20206;-80
2021/05/04 10:11:53;;;;;;;3.60;1.55;;;9.70;99.90;;;;;;12228796;28;20083;-82
2021/05/04 10:17:54;;;;;;;4.43;1.30;;;9.60;99.90;;;;;;12218812;28;20161;-80
2021/05/04 10:23:56;;;;;;;4.13;1.25;;;9.70;99.90;;;;;;12223246;28;20083;-80
2021/05/04 10:30:00;;;;;;;3.20;1.15;;;9.90;99.90;;;;;;12223689;28;20512;-80
2021/05/04 10:36:02;;;;;;;2.17;1.08;;;9.80;99.90;;;;;;12227731;28;20056;-79
2021/05/04 10:42:05;;;;;;;7.45;1.73;;;9.90;99.90;;;;;;12232356;28;20054;-79
2021/05/04 10:48:07;;;;;;;5.40;1.60;;;10.00;99.90;;;;;;12259207;28;20078;-79
2021/05/04 10:54:10;;;;;;;4.45;1.40;;;8.80;99.90;;;;;;12340040;28;20052;-79
2021/05/04 11:00:31;;;;;;;3.85;1.60;;;8.50;99.90;;;;;;12230271;28;20178;-78
2021/05/04 11:06:33;;;;;;;3.58;1.42;;;9.10;99.90;;;;;;12200616;28;20635;-80
2021/05/04 11:12:37;;;;;;;2.72;1.08;;;10.10;99.90;;;;;;12214246;28;20106;-79
2021/05/04 11:18:57;;;;;;;;;;;10.60;99.90;;;;;;12216885;28;20055;-79
2021/05/04 11:24:59;;;;;;;1.88;0.90;;;10.30;99.90;;;;;;12214094;28;20018;-80
2021/05/04 11:31:00;;;;;;;3.15;1.25;;;10.20;99.90;;;;;;12210209;28;20059;-79
2021/05/04 11:37:02;;;;;;;5.43;1.30;;;10.10;99.90;;;;;;12201929;28;20051;-79
2021/05/04 11:43:04;;;;;;;4.00;1.63;;;9.90;99.90;;;;;;12203587;28;20202;-77
2021/05/04 11:49:05;;;;;;;5.22;2.28;;;9.70;99.90;;;;;;12211374;28;20146;-79
2021/05/04 11:55:28;;;;;;;4.80;2.95;;;9.60;99.90;;;;;;12171663;28;20075;-79
2021/05/04 12:01:40;;;;;;;4.72;1.70;;;10.40;99.90;;;;;;12179035;29;20084;-79
2021/05/04 12:07:46;;;;;;;2.95;1.50;;;11.20;99.90;;;;;;12160734;28;20053;-79
2021/05/04 12:13:57;;;;;;;7.35;2.22;;;11.40;99.90;;;;;;12199407;29;20135;-80
2021/05/04 12:20:15;;;;;;;6.10;2.20;;;10.60;99.90;;;;;;12202141;28;20060;-79
2021/05/04 12:26:20;;;;;;;5.32;2.30;;;10.80;99.90;;;;;;12220412;28;20161;-79
2021/05/04 12:32:21;;;;;;;5.88;2.05;;;10.30;99.90;;;;;;12206275;28;20094;-79
2021/05/04 12:38:30;;;;;;;9.07;1.95;;;10.80;99.90;;;;;;12199908;28;20052;-80
2021/05/04 12:44:33;;;;;;;5.93;2.38;;;11.50;99.90;;;;;;12207727;28;20048;-79
2021/05/04 12:50:35;;;;;;;7.65;1.90;;;11.80;99.90;;;;;;12212417;28;20052;-79
2021/05/04 12:56:38;;;;;;;5.65;1.45;;;11.30;99.90;;;;;;12201970;28;20105;-81
2021/05/04 13:02:40;;;;;;;3.60;1.60;;;11.00;99.90;;;;;;12204922;28;20118;-80
2021/05/04 13:08:55;;;;;;;12.00;2.08;;;10.90;99.90;;;;;;12211339;28;20056;-80
2021/05/04 13:15:10;;;;;;;8.02;1.83;;;11.60;99.90;;;;;;12203760;28;20106;-80
2021/05/04 13:33:50;;;;;;;6.25;1.33;;;10.90;99.90;;;;;;12203714;28;20048;-80
2021/05/04 13:52:44;;;;;;;4.18;2.00;;;10.40;99.90;;;;;;12213264;28;20063;-79
2021/05/04 13:58:45;;;;;;;5.38;2.33;;;10.70;99.90;;;;;;12223124;28;20175;-81
2021/05/04 14:29:36;;;;;;;3.92;1.90;;;11.60;99.90;;;;;;12223447;28;20453;-78
2021/05/04 14:35:44;;;;;;;5.85;1.85;;;12.10;99.90;;;;;;12212100;28;20135;-78
2021/05/04 15:00:30;;;;;;;6.03;1.33;;;12.30;99.90;;;;;;12211750;28;20131;-79
2021/05/04 15:06:26;;;;;;;5.70;1.42;;;12.50;99.90;;;;;;12209714;28;20135;-78
2021/05/04 15:12:29;;;;;;;4.30;1.35;;;12.50;99.90;;;;;;12219600;28;20082;-79
2021/05/04 15:24:31;;;;;;;2.75;0.85;;;12.60;99.90;;;;;;12206723;28;20111;-80
2021/05/04 15:30:33;;;;;;;4.65;1.00;;;12.70;99.90;;;;;;12209846;28;20052;-79
2021/05/04 15:36:35;;;;;;;3.63;1.15;;;11.90;99.90;;;;;;12290264;28;20078;-79
2021/05/04 15:42:37;;;;;;;3.85;1.10;;;11.70;99.90;;;;;;12202848;28;20101;-80
2021/05/04 16:07:10;;;;;;;3.35;1.10;;;12.70;99.90;;;;;;12203802;28;20054;-79
2021/05/04 16:13:12;;;;;;;4.25;1.00;;;13.20;99.90;;;;;;12207599;28;20072;-80
2021/05/04 16:19:37;;;;;;;1.77;0.80;;;12.20;99.90;;;;;;12204268;28;20055;-80
2021/05/04 16:32:04;;;;;;;4.15;1.15;;;11.30;99.90;;;;;;12237427;28;20110;-81
2021/05/04 16:38:05;;;;;;;4.15;1.08;;;11.00;99.90;;;;;;12219652;28;20481;-80
2021/05/04 16:44:07;;;;;;;3.80;1.38;;;10.90;99.90;;;;;;12205487;28;20654;-79
2021/05/04 16:50:09;;;;;;;5.05;1.65;;;11.10;99.90;;;;;;12206468;28;20084;-79
2021/05/04 16:56:11;;;;;;;6.63;1.45;;;11.70;99.90;;;;;;12220581;28;20064;-79
2021/05/04 17:02:21;;;;;;;2.90;1.02;;;11.00;99.90;;;;;;12211173;28;20055;-79
2021/05/04 17:14:50;;;;;;;6.40;1.05;;;10.60;99.90;;;;;;12204605;28;20056;-79
2021/05/04 17:21:11;;;;;;;3.15;1.02;;;10.80;99.90;;;;;;12202655;28;20086;-81
2021/05/04 17:27:13;;;;;;;4.07;1.08;;;11.00;99.90;;;;;;12210023;28;20056;-80
2021/05/04 17:33:15;;;;;;;3.45;0.98;;;11.60;99.90;;;;;;12213890;28;20048;-78
2021/05/04 17:39:16;;;;;;;3.45;0.95;;;11.00;99.90;;;;;;12213135;28;20052;-79
2021/05/04 17:45:22;;;;;;;5.03;1.38;;;10.40;99.90;;;;;;12221078;28;20048;-80
2021/05/04 17:51:43;;;;;;;5.75;1.10;;;10.00;99.90;;;;;;12209199;28;20060;-79
2021/05/04 17:57:45;;;;;;;3.58;1.10;;;9.80;99.90;;;;;;12166175;29;20808;-79
2021/05/04 18:03:46;;;;;;;6.38;1.30;;;9.70;99.90;;;;;;12157769;29;20086;-79
2021/05/04 18:09:50;;;;;;;3.90;1.10;;;10.00;99.90;;;;;;12162491;29;20093;-80
2021/05/04 18:22:11;;;;;;;2.08;1.00;;;10.10;99.90;;;;;;12208450;29;20568;-79
2021/05/04 18:28:13;;;;;;;4.78;1.50;;;9.60;99.90;;;;;;12212934;28;20056;-78
2021/05/04 18:34:19;;;;;;;2.50;1.30;;;9.30;99.90;;;;;;12186117;28;20799;-79
2021/05/04 18:40:34;;;;;;;4.13;1.20;;;9.00;99.90;;;;;;12192381;28;20055;-80
2021/05/04 19:24:19;;;;;;;2.25;1.42;;;8.00;99.90;;;;;;12225268;28;20386;-79
2021/05/04 20:13:29;;;;;;;3.40;1.60;;;7.90;99.90;;;;;;12216427;28;20061;-78
2021/05/04 20:19:32;;;;;;;4.88;1.80;;;7.90;99.90;;;;;;12204160;28;20443;-78
2021/05/04 20:25:34;;;;;;;3.63;1.88;;;7.80;99.90;;;;;;12205237;28;20101;-77
2021/05/04 20:31:35;;;;;;;5.13;1.90;;;7.80;99.90;;;;;;12200404;28;20044;-78
2021/05/04 20:37:38;;;;;;;3.45;1.90;;;7.80;99.90;;;;;;12202427;28;20079;-78
2021/05/04 20:43:40;;;;;;;3.63;2.60;;;7.70;99.90;;;;;;12204197;28;20604;-78
2021/05/04 20:49:41;;;;;;;3.83;2.72;;;7.70;99.90;;;;;;12203423;28;20673;-78
2021/05/04 20:55:43;;;;;;;5.80;3.05;;;7.50;99.90;;;;;;12215901;28;20499;-78
2021/05/04 21:01:45;;;;;;;4.95;3.40;;;7.50;99.90;;;;;;12218942;28;20416;-78
2021/05/04 21:07:49;;;;;;;5.45;3.30;;;7.40;99.90;;;;;;12233053;28;20470;-78
2021/05/04 21:13:50;;;;;;;5.63;3.60;;;7.40;99.90;;;;;;12223255;28;20078;-78
2021/05/04 21:19:58;;;;;;;4.50;3.33;;;7.30;99.90;;;;;;12221028;28;20097;-78
2021/05/04 21:26:12;;;;;;;8.48;3.08;;;7.30;99.90;;;;;;12223233;28;20048;-78
2021/05/04 21:32:14;;;;;;;5.00;2.90;;;7.30;99.90;;;;;;12235151;28;20130;-79
2021/05/04 21:38:15;;;;;;;6.28;3.45;;;7.40;99.90;;;;;;12230901;28;20124;-79
2021/05/04 21:44:17;;;;;;;3.50;3.00;;;7.40;99.90;;;;;;12227188;28;20059;-78
2021/05/04 21:50:20;;;;;;;4.85;2.95;;;7.60;99.90;;;;;;12212700;28;20063;-78
2021/05/04 21:56:21;;;;;;;4.38;2.63;;;7.50;99.90;;;;;;12224477;28;20514;-78
2021/05/04 22:02:28;;;;;;;4.82;2.20;;;7.50;99.90;;;;;;12214176;28;20205;-78
2021/05/04 22:08:29;;;;;;;5.93;2.83;;;7.60;99.90;;;;;;12238371;28;20048;-78
2021/05/04 22:14:41;;;;;;;3.90;2.40;;;7.60;99.90;;;;;;12213306;28;20070;-77
2021/05/04 22:39:54;;;;;;;3.83;3.28;;;7.60;99.90;;;;;;12208872;28;20553;-78
2021/05/04 23:12:59;;;;;;;7.57;5.78;;;7.50;99.90;;;;;;12207470;28;20488;-78
2021/05/04 23:17:37;;;;;;;9.65;4.85;;;7.50;99.90;;;;;;12218395;28;20142;-78
2021/05/04 23:23:39;;;;;;;8.55;4.28;;;7.50;99.90;;;;;;12176906;28;20052;-78
2021/05/04 23:29:40;;;;;;;5.65;4.18;;;7.40;99.90;;;;;;12167472;28;20117;-78
2021/05/04 23:35:41;;;;;;;5.50;4.00;;;7.40;99.90;;;;;;12169799;28;20730;-78
2021/05/04 23:41:43;;;;;;;6.53;4.13;;;7.50;99.90;;;;;;12164312;28;20110;-78
2021/05/04 23:47:44;;;;;;;9.13;4.05;;;7.50;99.90;;;;;;12158783;29;20052;-78
2021/05/04 23:53:46;;;;;;;4.50;3.22;;;7.40;99.90;;;;;;12147221;29;20052;-78
2021/05/04 23:59:47;;;;;;;5.18;3.08;;;7.40;99.90;;;;;;12157501;28;20082;-78
